sensor_id;sensor_type;location;lat;lon;timestamp;P1;durP1;ratioP1;P2;durP2;ratioP2
35522;SDS011;61478;50.820;4.330;2022-11-04T00:02:14;7.05;;;2.38;;
35522;SDS011;61478;50.820;4.330;2022-11-04T00:04:44;7.57;;;2.60;;
35522;SDS011;61478;50.820;4.330;2022-11-04T00:07:16;9.88;;;2.50;;
35522;SDS011;61478;50.820;4.330;2022-11-04T00:10:01;8.70;;;2.67;;
35522;SDS011;61478;50.820;4.330;2022-11-04T00:12:30;11.32;;;2.38;;
35522;SDS011;61478;50.820;4.330;2022-11-04T00:14:56;6.18;;;2.00;;
35522;SDS011;61478;50.820;4.330;2022-11-04T00:17:44;12.55;;;2.88;;
35522;SDS011;61478;50.820;4.330;2022-11-04T00:20:21;7.43;;;2.10;;
35522;SDS011;61478;50.820;4.330;2022-11-04T00:23:06;12.97;;;2.67;;
35522;SDS011;61478;50.820;4.330;2022-11-04T00:25:54;9.52;;;2.42;;
35522;SDS011;61478;50.820;4.330;2022-11-04T00:28:58;12.20;;;3.40;;
35522;SDS011;61478;50.820;4.330;2022-11-04T00:31:24;10.77;;;3.00;;
35522;SDS011;61478;50.820;4.330;2022-11-04T00:34:09;9.43;;;3.10;;
35522;SDS011;61478;50.820;4.330;2022-11-04T00:36:43;10.63;;;2.45;;
35522;SDS011;61478;50.820;4.330;2022-11-04T00:39:16;14.75;;;3.58;;
35522;SDS011;61478;50.820;4.330;2022-11-04T00:41:50;13.18;;;2.97;;
35522;SDS011;61478;50.820;4.330;2022-11-04T00:44:22;23.17;;;3.30;;
35522;SDS011;61478;50.820;4.330;2022-11-04T00:46:53;6.70;;;2.13;;
35522;SDS011;61478;50.820;4.330;2022-11-04T00:49:28;8.07;;;2.50;;
35522;SDS011;61478;50.820;4.330;2022-11-04T00:52:02;12.05;;;2.60;;
35522;SDS011;61478;50.820;4.330;2022-11-04T00:54:34;16.83;;;2.67;;
35522;SDS011;61478;50.820;4.330;2022-11-04T00:57:09;9.07;;;2.58;;
35522;SDS011;61478;50.820;4.330;2022-11-04T00:59:43;13.40;;;3.35;;
35522;SDS011;61478;50.820;4.330;2022-11-04T01:02:23;11.68;;;2.88;;
35522;SDS011;61478;50.820;4.330;2022-11-04T01:05:03;13.02;;;2.95;;
35522;SDS011;61478;50.820;4.330;2022-11-04T01:07:32;15.73;;;2.83;;
35522;SDS011;61478;50.820;4.330;2022-11-04T01:10:08;11.13;;;2.50;;
35522;SDS011;61478;50.820;4.330;2022-11-04T01:12:37;12.63;;;3.03;;
35522;SDS011;61478;50.820;4.330;2022-11-04T01:15:03;15.77;;;3.33;;
35522;SDS011;61478;50.820;4.330;2022-11-04T01:17:38;19.05;;;3.53;;
35522;SDS011;61478;50.820;4.330;2022-11-04T01:20:10;14.98;;;3.08;;
35522;SDS011;61478;50.820;4.330;2022-11-04T01:22:40;12.13;;;2.47;;
35522;SDS011;61478;50.820;4.330;2022-11-04T01:25:15;12.77;;;3.30;;
35522;SDS011;61478;50.820;4.330;2022-11-04T01:27:57;16.70;;;3.47;;
35522;SDS011;61478;50.820;4.330;2022-11-04T01:30:41;14.02;;;3.35;;
35522;SDS011;61478;50.820;4.330;2022-11-04T01:33:17;10.00;;;2.42;;
35522;SDS011;61478;50.820;4.330;2022-11-04T01:35:53;10.60;;;3.17;;
35522;SDS011;61478;50.820;4.330;2022-11-04T01:38:29;18.15;;;3.00;;
35522;SDS011;61478;50.820;4.330;2022-11-04T01:41:05;11.55;;;3.45;;
35522;SDS011;61478;50.820;4.330;2022-11-04T01:43:49;14.23;;;3.47;;
35522;SDS011;61478;50.820;4.330;2022-11-04T01:49:07;14.98;;;3.17;;
35522;SDS011;61478;50.820;4.330;2022-11-04T01:54:42;15.65;;;2.92;;
35522;SDS011;61478;50.820;4.330;2022-11-04T01:57:20;11.00;;;3.08;;
35522;SDS011;61478;50.820;4.330;2022-11-04T01:59:58;13.30;;;2.65;;
35522;SDS011;61478;50.820;4.330;2022-11-04T02:02:35;10.10;;;2.65;;
35522;SDS011;61478;50.820;4.330;2022-11-04T02:05:32;12.60;;;2.88;;
35522;SDS011;61478;50.820;4.330;2022-11-04T02:08:14;13.95;;;2.90;;
35522;SDS011;61478;50.820;4.330;2022-11-04T02:10:53;15.32;;;3.25;;
35522;SDS011;61478;50.820;4.330;2022-11-04T02:13:33;11.27;;;3.33;;
35522;SDS011;61478;50.820;4.330;2022-11-04T02:16:20;11.15;;;2.80;;
35522;SDS011;61478;50.820;4.330;2022-11-04T02:19:13;11.88;;;3.40;;
35522;SDS011;61478;50.820;4.330;2022-11-04T02:25:32;13.60;;;3.50;;
35522;SDS011;61478;50.820;4.330;2022-11-04T02:31:49;8.63;;;2.97;;
35522;SDS011;61478;50.820;4.330;2022-11-04T02:40:42;20.25;;;4.20;;
35522;SDS011;61478;50.820;4.330;2022-11-04T02:43:34;16.50;;;4.18;;
35522;SDS011;61478;50.820;4.330;2022-11-04T02:48:52;12.65;;;3.13;;
35522;SDS011;61478;50.820;4.330;2022-11-04T02:52:00;16.35;;;3.92;;
35522;SDS011;61478;50.820;4.330;2022-11-04T02:54:41;14.77;;;4.15;;
35522;SDS011;61478;50.820;4.330;2022-11-04T02:57:20;14.38;;;3.55;;
35522;SDS011;61478;50.820;4.330;2022-11-04T03:00:07;16.08;;;3.85;;
35522;SDS011;61478;50.820;4.330;2022-11-04T03:03:00;21.98;;;4.25;;
35522;SDS011;61478;50.820;4.330;2022-11-04T03:05:37;12.77;;;3.45;;
35522;SDS011;61478;50.820;4.330;2022-11-04T03:08:16;15.57;;;3.78;;
35522;SDS011;61478;50.820;4.330;2022-11-04T03:10:54;14.60;;;4.25;;
35522;SDS011;61478;50.820;4.330;2022-11-04T03:13:38;14.10;;;3.95;;
35522;SDS011;61478;50.820;4.330;2022-11-04T03:16:15;11.82;;;3.72;;
35522;SDS011;61478;50.820;4.330;2022-11-04T03:18:56;10.57;;;3.22;;
35522;SDS011;61478;50.820;4.330;2022-11-04T03:21:52;12.70;;;3.67;;
35522;SDS011;61478;50.820;4.330;2022-11-04T03:24:31;14.63;;;3.95;;
35522;SDS011;61478;50.820;4.330;2022-11-04T03:27:02;11.48;;;3.88;;
35522;SDS011;61478;50.820;4.330;2022-11-04T03:35:15;21.25;;;4.38;;
35522;SDS011;61478;50.820;4.330;2022-11-04T03:37:50;17.52;;;4.10;;
35522;SDS011;61478;50.820;4.330;2022-11-04T03:40:22;13.38;;;4.20;;
35522;SDS011;61478;50.820;4.330;2022-11-04T03:42:56;13.07;;;3.45;;
35522;SDS011;61478;50.820;4.330;2022-11-04T03:45:39;13.73;;;4.22;;
35522;SDS011;61478;50.820;4.330;2022-11-04T03:48:12;13.98;;;3.40;;
35522;SDS011;61478;50.820;4.330;2022-11-04T03:50:46;11.25;;;3.47;;
35522;SDS011;61478;50.820;4.330;2022-11-04T03:53:22;17.08;;;3.65;;
35522;SDS011;61478;50.820;4.330;2022-11-04T03:58:54;15.07;;;3.05;;
35522;SDS011;61478;50.820;4.330;2022-11-04T04:01:54;12.60;;;4.40;;
35522;SDS011;61478;50.820;4.330;2022-11-04T04:04:55;15.75;;;3.50;;
35522;SDS011;61478;50.820;4.330;2022-11-04T04:10:09;11.15;;;2.83;;
35522;SDS011;61478;50.820;4.330;2022-11-04T04:13:00;9.70;;;3.20;;
35522;SDS011;61478;50.820;4.330;2022-11-04T04:15:41;12.88;;;3.55;;
35522;SDS011;61478;50.820;4.330;2022-11-04T04:18:27;11.45;;;3.17;;
35522;SDS011;61478;50.820;4.330;2022-11-04T04:21:04;10.48;;;3.20;;
35522;SDS011;61478;50.820;4.330;2022-11-04T04:23:43;12.75;;;2.95;;
35522;SDS011;61478;50.820;4.330;2022-11-04T04:26:32;14.13;;;3.45;;
35522;SDS011;61478;50.820;4.330;2022-11-04T04:29:22;13.98;;;3.00;;
35522;SDS011;61478;50.820;4.330;2022-11-04T04:31:52;17.45;;;3.67;;
35522;SDS011;61478;50.820;4.330;2022-11-04T04:34:27;15.02;;;3.28;;
35522;SDS011;61478;50.820;4.330;2022-11-04T04:39:27;12.68;;;3.58;;
35522;SDS011;61478;50.820;4.330;2022-11-04T04:42:24;15.90;;;3.25;;
35522;SDS011;61478;50.820;4.330;2022-11-04T04:45:18;15.57;;;3.55;;
35522;SDS011;61478;50.820;4.330;2022-11-04T04:47:52;12.52;;;3.60;;
35522;SDS011;61478;50.820;4.330;2022-11-04T04:50:24;15.93;;;3.50;;
35522;SDS011;61478;50.820;4.330;2022-11-04T04:52:57;16.52;;;3.20;;
35522;SDS011;61478;50.820;4.330;2022-11-04T04:55:32;14.35;;;3.55;;
35522;SDS011;61478;50.820;4.330;2022-11-04T04:58:02;13.60;;;3.58;;
35522;SDS011;61478;50.820;4.330;2022-11-04T05:00:30;10.85;;;3.45;;
35522;SDS011;61478;50.820;4.330;2022-11-04T05:02:57;16.08;;;3.97;;
35522;SDS011;61478;50.820;4.330;2022-11-04T05:05:29;13.75;;;3.13;;
35522;SDS011;61478;50.820;4.330;2022-11-04T05:08:02;12.40;;;2.95;;
35522;SDS011;61478;50.820;4.330;2022-11-04T05:10:34;17.45;;;3.25;;
35522;SDS011;61478;50.820;4.330;2022-11-04T05:13:08;12.85;;;3.70;;
35522;SDS011;61478;50.820;4.330;2022-11-04T05:16:01;14.65;;;4.05;;
35522;SDS011;61478;50.820;4.330;2022-11-04T05:18:30;12.60;;;3.05;;
35522;SDS011;61478;50.820;4.330;2022-11-04T05:21:09;12.68;;;3.13;;
35522;SDS011;61478;50.820;4.330;2022-11-04T05:23:36;15.75;;;3.45;;
35522;SDS011;61478;50.820;4.330;2022-11-04T05:26:06;18.00;;;7.00;;
35522;SDS011;61478;50.820;4.330;2022-11-04T05:28:35;17.80;;;3.58;;
35522;SDS011;61478;50.820;4.330;2022-11-04T05:31:10;14.73;;;3.58;;
35522;SDS011;61478;50.820;4.330;2022-11-04T05:33:44;19.45;;;3.63;;
35522;SDS011;61478;50.820;4.330;2022-11-04T05:36:16;13.55;;;4.28;;
35522;SDS011;61478;50.820;4.330;2022-11-04T05:38:42;16.88;;;3.38;;
35522;SDS011;61478;50.820;4.330;2022-11-04T05:41:20;14.70;;;2.88;;
35522;SDS011;61478;50.820;4.330;2022-11-04T05:43:55;16.30;;;3.72;;
35522;SDS011;61478;50.820;4.330;2022-11-04T05:46:46;13.18;;;2.92;;
35522;SDS011;61478;50.820;4.330;2022-11-04T05:49:16;18.45;;;3.75;;
35522;SDS011;61478;50.820;4.330;2022-11-04T05:51:50;21.15;;;7.97;;
35522;SDS011;61478;50.820;4.330;2022-11-04T05:54:19;13.65;;;3.50;;
35522;SDS011;61478;50.820;4.330;2022-11-04T05:56:44;15.15;;;3.17;;
35522;SDS011;61478;50.820;4.330;2022-11-04T05:59:10;15.13;;;3.25;;
35522;SDS011;61478;50.820;4.330;2022-11-04T06:01:37;12.63;;;3.00;;
35522;SDS011;61478;50.820;4.330;2022-11-04T06:04:14;19.23;;;3.60;;
35522;SDS011;61478;50.820;4.330;2022-11-04T06:06:42;11.70;;;3.05;;
35522;SDS011;61478;50.820;4.330;2022-11-04T06:09:08;13.10;;;3.25;;
35522;SDS011;61478;50.820;4.330;2022-11-04T06:11:40;14.02;;;4.75;;
35522;SDS011;61478;50.820;4.330;2022-11-04T06:14:09;17.25;;;4.45;;
35522;SDS011;61478;50.820;4.330;2022-11-04T06:16:36;17.05;;;3.00;;
35522;SDS011;61478;50.820;4.330;2022-11-04T06:19:07;12.85;;;3.38;;
35522;SDS011;61478;50.820;4.330;2022-11-04T06:21:47;13.35;;;3.65;;
35522;SDS011;61478;50.820;4.330;2022-11-04T06:24:19;15.13;;;3.33;;
35522;SDS011;61478;50.820;4.330;2022-11-04T06:26:48;15.23;;;3.95;;
35522;SDS011;61478;50.820;4.330;2022-11-04T06:29:14;20.70;;;3.50;;
35522;SDS011;61478;50.820;4.330;2022-11-04T06:31:43;14.32;;;2.75;;
35522;SDS011;61478;50.820;4.330;2022-11-04T06:34:13;18.23;;;3.67;;
35522;SDS011;61478;50.820;4.330;2022-11-04T06:36:42;10.65;;;3.25;;
35522;SDS011;61478;50.820;4.330;2022-11-04T06:39:08;20.20;;;3.33;;
35522;SDS011;61478;50.820;4.330;2022-11-04T06:41:55;14.20;;;3.67;;
35522;SDS011;61478;50.820;4.330;2022-11-04T06:44:30;12.60;;;3.47;;
35522;SDS011;61478;50.820;4.330;2022-11-04T06:46:58;15.35;;;3.88;;
35522;SDS011;61478;50.820;4.330;2022-11-04T06:49:24;14.70;;;3.58;;
35522;SDS011;61478;50.820;4.330;2022-11-04T06:51:54;11.60;;;3.50;;
35522;SDS011;61478;50.820;4.330;2022-11-04T06:54:26;15.25;;;4.05;;
35522;SDS011;61478;50.820;4.330;2022-11-04T06:56:52;19.00;;;3.60;;
35522;SDS011;61478;50.820;4.330;2022-11-04T06:59:18;12.82;;;3.67;;
35522;SDS011;61478;50.820;4.330;2022-11-04T07:01:45;17.13;;;3.90;;
35522;SDS011;61478;50.820;4.330;2022-11-04T07:04:14;13.43;;;3.58;;
35522;SDS011;61478;50.820;4.330;2022-11-04T07:06:43;15.57;;;4.38;;
35522;SDS011;61478;50.820;4.330;2022-11-04T07:09:16;12.13;;;3.15;;
35522;SDS011;61478;50.820;4.330;2022-11-04T07:11:42;15.05;;;3.72;;
35522;SDS011;61478;50.820;4.330;2022-11-04T07:14:09;17.75;;;4.18;;
35522;SDS011;61478;50.820;4.330;2022-11-04T07:16:35;21.95;;;3.65;;
35522;SDS011;61478;50.820;4.330;2022-11-04T07:19:05;14.30;;;3.53;;
35522;SDS011;61478;50.820;4.330;2022-11-04T07:21:34;18.23;;;3.53;;
35522;SDS011;61478;50.820;4.330;2022-11-04T07:24:09;14.73;;;3.00;;
35522;SDS011;61478;50.820;4.330;2022-11-04T07:26:39;13.07;;;3.42;;
35522;SDS011;61478;50.820;4.330;2022-11-04T07:29:08;12.15;;;3.25;;
35522;SDS011;61478;50.820;4.330;2022-11-04T07:31:35;17.50;;;4.20;;
35522;SDS011;61478;50.820;4.330;2022-11-04T07:34:02;17.90;;;4.32;;
35522;SDS011;61478;50.820;4.330;2022-11-04T07:36:28;13.13;;;3.50;;
35522;SDS011;61478;50.820;4.330;2022-11-04T07:38:58;13.85;;;3.20;;
35522;SDS011;61478;50.820;4.330;2022-11-04T07:41:27;8.13;;;3.00;;
35522;SDS011;61478;50.820;4.330;2022-11-04T07:43:54;17.98;;;4.28;;
35522;SDS011;61478;50.820;4.330;2022-11-04T07:46:23;13.43;;;3.47;;
35522;SDS011;61478;50.820;4.330;2022-11-04T07:48:55;12.50;;;3.13;;
35522;SDS011;61478;50.820;4.330;2022-11-04T07:51:27;17.05;;;3.40;;
35522;SDS011;61478;50.820;4.330;2022-11-04T07:53:59;13.15;;;3.17;;
35522;SDS011;61478;50.820;4.330;2022-11-04T07:56:31;17.77;;;4.20;;
35522;SDS011;61478;50.820;4.330;2022-11-04T07:58:57;13.52;;;3.75;;
35522;SDS011;61478;50.820;4.330;2022-11-04T08:01:28;15.65;;;4.28;;
35522;SDS011;61478;50.820;4.330;2022-11-04T08:03:58;15.65;;;3.53;;
35522;SDS011;61478;50.820;4.330;2022-11-04T08:06:24;9.63;;;2.95;;
35522;SDS011;61478;50.820;4.330;2022-11-04T08:08:51;13.73;;;3.25;;
35522;SDS011;61478;50.820;4.330;2022-11-04T08:11:19;19.20;;;4.03;;
35522;SDS011;61478;50.820;4.330;2022-11-04T08:13:54;15.30;;;3.00;;
35522;SDS011;61478;50.820;4.330;2022-11-04T08:16:21;13.02;;;3.17;;
35522;SDS011;61478;50.820;4.330;2022-11-04T08:18:51;14.98;;;3.47;;
35522;SDS011;61478;50.820;4.330;2022-11-04T08:21:26;16.88;;;3.72;;
35522;SDS011;61478;50.820;4.330;2022-11-04T08:24:05;12.93;;;3.15;;
35522;SDS011;61478;50.820;4.330;2022-11-04T08:26:40;14.70;;;3.72;;
35522;SDS011;61478;50.820;4.330;2022-11-04T08:29:12;11.88;;;3.15;;
35522;SDS011;61478;50.820;4.330;2022-11-04T08:31:41;13.88;;;3.90;;
35522;SDS011;61478;50.820;4.330;2022-11-04T08:34:07;14.80;;;3.15;;
35522;SDS011;61478;50.820;4.330;2022-11-04T08:36:35;11.35;;;3.75;;
35522;SDS011;61478;50.820;4.330;2022-11-04T08:39:07;10.35;;;3.30;;
35522;SDS011;61478;50.820;4.330;2022-11-04T08:41:43;20.73;;;4.65;;
35522;SDS011;61478;50.820;4.330;2022-11-04T08:44:14;15.25;;;4.13;;
35522;SDS011;61478;50.820;4.330;2022-11-04T08:46:41;16.63;;;4.13;;
35522;SDS011;61478;50.820;4.330;2022-11-04T08:49:09;19.92;;;4.25;;
35522;SDS011;61478;50.820;4.330;2022-11-04T08:51:39;14.13;;;3.30;;
35522;SDS011;61478;50.820;4.330;2022-11-04T08:54:13;19.75;;;4.55;;
35522;SDS011;61478;50.820;4.330;2022-11-04T08:56:43;17.15;;;4.05;;
35522;SDS011;61478;50.820;4.330;2022-11-04T08:59:16;11.60;;;2.97;;
35522;SDS011;61478;50.820;4.330;2022-11-04T09:01:45;17.13;;;3.83;;
35522;SDS011;61478;50.820;4.330;2022-11-04T09:04:14;20.40;;;4.38;;
35522;SDS011;61478;50.820;4.330;2022-11-04T09:06:44;11.93;;;3.58;;
35522;SDS011;61478;50.820;4.330;2022-11-04T09:09:12;15.27;;;3.10;;
35522;SDS011;61478;50.820;4.330;2022-11-04T09:12:00;16.55;;;3.42;;
35522;SDS011;61478;50.820;4.330;2022-11-04T09:14:29;18.73;;;4.65;;
35522;SDS011;61478;50.820;4.330;2022-11-04T09:17:01;20.05;;;5.72;;
35522;SDS011;61478;50.820;4.330;2022-11-04T09:19:34;17.48;;;4.22;;
35522;SDS011;61478;50.820;4.330;2022-11-04T09:22:10;17.50;;;4.63;;
35522;SDS011;61478;50.820;4.330;2022-11-04T09:24:42;15.05;;;3.78;;
35522;SDS011;61478;50.820;4.330;2022-11-04T09:27:11;18.25;;;3.83;;
35522;SDS011;61478;50.820;4.330;2022-11-04T09:29:37;15.85;;;4.07;;
35522;SDS011;61478;50.820;4.330;2022-11-04T09:32:03;17.52;;;4.57;;
35522;SDS011;61478;50.820;4.330;2022-11-04T09:34:37;14.85;;;4.47;;
35522;SDS011;61478;50.820;4.330;2022-11-04T09:37:07;17.35;;;4.10;;
35522;SDS011;61478;50.820;4.330;2022-11-04T09:39:36;19.25;;;4.00;;
35522;SDS011;61478;50.820;4.330;2022-11-04T09:42:05;17.88;;;5.28;;
35522;SDS011;61478;50.820;4.330;2022-11-04T09:44:47;23.33;;;4.32;;
35522;SDS011;61478;50.820;4.330;2022-11-04T09:47:21;17.92;;;4.32;;
35522;SDS011;61478;50.820;4.330;2022-11-04T09:49:52;12.55;;;4.13;;
35522;SDS011;61478;50.820;4.330;2022-11-04T09:52:32;20.98;;;4.50;;
35522;SDS011;61478;50.820;4.330;2022-11-04T09:58:13;13.88;;;3.97;;
35522;SDS011;61478;50.820;4.330;2022-11-04T10:00:39;11.50;;;3.40;;
35522;SDS011;61478;50.820;4.330;2022-11-04T10:06:09;15.35;;;3.90;;
35522;SDS011;61478;50.820;4.330;2022-11-04T10:11:34;14.35;;;4.70;;
35522;SDS011;61478;50.820;4.330;2022-11-04T10:17:22;16.50;;;4.65;;
35522;SDS011;61478;50.820;4.330;2022-11-04T10:25:52;25.83;;;5.53;;
35522;SDS011;61478;50.820;4.330;2022-11-04T10:28:32;16.98;;;5.68;;
35522;SDS011;61478;50.820;4.330;2022-11-04T10:31:16;19.20;;;6.07;;
35522;SDS011;61478;50.820;4.330;2022-11-04T10:34:08;15.25;;;4.65;;
35522;SDS011;61478;50.820;4.330;2022-11-04T10:36:45;21.88;;;5.47;;
35522;SDS011;61478;50.820;4.330;2022-11-04T10:39:19;16.98;;;4.85;;
35522;SDS011;61478;50.820;4.330;2022-11-04T10:41:59;19.77;;;5.40;;
35522;SDS011;61478;50.820;4.330;2022-11-04T10:44:31;15.73;;;4.78;;
35522;SDS011;61478;50.820;4.330;2022-11-04T10:52:48;19.23;;;5.15;;
35522;SDS011;61478;50.820;4.330;2022-11-04T10:57:42;20.73;;;5.78;;
35522;SDS011;61478;50.820;4.330;2022-11-04T11:00:08;15.15;;;5.20;;
35522;SDS011;61478;50.820;4.330;2022-11-04T11:03:04;14.32;;;5.35;;
35522;SDS011;61478;50.820;4.330;2022-11-04T11:08:53;17.10;;;4.90;;
35522;SDS011;61478;50.820;4.330;2022-11-04T11:11:45;27.67;;;6.38;;
35522;SDS011;61478;50.820;4.330;2022-11-04T11:20:21;16.35;;;8.07;;
35522;SDS011;61478;50.820;4.330;2022-11-04T11:22:52;21.95;;;8.77;;
35522;SDS011;61478;50.820;4.330;2022-11-04T11:25:25;28.77;;;9.48;;
35522;SDS011;61478;50.820;4.330;2022-11-04T11:28:10;23.83;;;10.55;;
35522;SDS011;61478;50.820;4.330;2022-11-04T11:30:56;22.70;;;8.88;;
35522;SDS011;61478;50.820;4.330;2022-11-04T11:33:32;18.17;;;8.30;;
35522;SDS011;61478;50.820;4.330;2022-11-04T11:39:13;15.02;;;7.65;;
35522;SDS011;61478;50.820;4.330;2022-11-04T11:41:50;15.75;;;8.15;;
35522;SDS011;61478;50.820;4.330;2022-11-04T11:44:39;19.70;;;8.40;;
35522;SDS011;61478;50.820;4.330;2022-11-04T11:52:43;17.33;;;7.60;;
35522;SDS011;61478;50.820;4.330;2022-11-04T11:55:35;18.10;;;8.10;;
35522;SDS011;61478;50.820;4.330;2022-11-04T12:04:06;17.95;;;6.85;;
35522;SDS011;61478;50.820;4.330;2022-11-04T12:18:01;20.65;;;6.30;;
35522;SDS011;61478;50.820;4.330;2022-11-04T12:23:38;13.25;;;5.25;;
35522;SDS011;61478;50.820;4.330;2022-11-04T12:26:24;19.20;;;6.30;;
35522;SDS011;61478;50.820;4.330;2022-11-04T12:32:07;12.20;;;5.85;;
35522;SDS011;61478;50.820;4.330;2022-11-04T12:37:39;27.02;;;6.82;;
35522;SDS011;61478;50.820;4.330;2022-11-04T12:40:27;20.67;;;6.82;;
35522;SDS011;61478;50.820;4.330;2022-11-04T12:52:03;26.70;;;5.85;;
35522;SDS011;61478;50.820;4.330;2022-11-04T13:00:20;24.17;;;5.78;;
35522;SDS011;61478;50.820;4.330;2022-11-04T13:02:55;16.15;;;5.07;;
35522;SDS011;61478;50.820;4.330;2022-11-04T13:05:37;14.88;;;4.55;;
35522;SDS011;61478;50.820;4.330;2022-11-04T13:08:39;18.02;;;5.38;;
35522;SDS011;61478;50.820;4.330;2022-11-04T13:11:18;14.35;;;4.15;;
35522;SDS011;61478;50.820;4.330;2022-11-04T13:16:16;17.48;;;5.03;;
35522;SDS011;61478;50.820;4.330;2022-11-04T13:18:42;16.20;;;5.53;;
35522;SDS011;61478;50.820;4.330;2022-11-04T13:21:16;12.60;;;4.97;;
35522;SDS011;61478;50.820;4.330;2022-11-04T13:29:09;18.98;;;6.53;;
35522;SDS011;61478;50.820;4.330;2022-11-04T13:37:47;11.35;;;6.93;;
35522;SDS011;61478;50.820;4.330;2022-11-04T13:40:37;20.40;;;6.95;;
35522;SDS011;61478;50.820;4.330;2022-11-04T13:43:23;18.95;;;7.35;;
35522;SDS011;61478;50.820;4.330;2022-11-04T13:46:14;16.88;;;6.97;;
35522;SDS011;61478;50.820;4.330;2022-11-04T13:51:43;14.93;;;6.93;;
35522;SDS011;61478;50.820;4.330;2022-11-04T13:54:30;16.40;;;7.28;;
35522;SDS011;61478;50.820;4.330;2022-11-04T13:57:27;15.13;;;6.97;;
35522;SDS011;61478;50.820;4.330;2022-11-04T14:02:45;8.65;;;6.18;;
35522;SDS011;61478;50.820;4.330;2022-11-04T14:09:32;14.60;;;5.78;;
35522;SDS011;61478;50.820;4.330;2022-11-04T14:14:46;14.43;;;5.05;;
35522;SDS011;61478;50.820;4.330;2022-11-04T14:19:58;12.13;;;4.55;;
35522;SDS011;61478;50.820;4.330;2022-11-04T14:22:32;17.67;;;4.40;;
35522;SDS011;61478;50.820;4.330;2022-11-04T14:30:49;7.50;;;1.52;;
35522;SDS011;61478;50.820;4.330;2022-11-04T14:33:28;4.78;;;0.90;;
35522;SDS011;61478;50.820;4.330;2022-11-04T14:36:12;2.95;;;1.17;;
35522;SDS011;61478;50.820;4.330;2022-11-04T14:38:51;2.00;;;0.77;;
35522;SDS011;61478;50.820;4.330;2022-11-04T14:46:46;4.22;;;0.75;;
35522;SDS011;61478;50.820;4.330;2022-11-04T14:49:35;3.55;;;0.90;;
35522;SDS011;61478;50.820;4.330;2022-11-04T14:53:03;0.80;;;0.60;;
35522;SDS011;61478;50.820;4.330;2022-11-04T14:55:39;4.03;;;0.70;;
35522;SDS011;61478;50.820;4.330;2022-11-04T14:58:22;2.20;;;0.60;;
35522;SDS011;61478;50.820;4.330;2022-11-04T15:00:57;4.75;;;1.00;;
35522;SDS011;61478;50.820;4.330;2022-11-04T15:03:38;2.88;;;1.23;;
35522;SDS011;61478;50.820;4.330;2022-11-04T15:06:13;2.10;;;1.30;;
35522;SDS011;61478;50.820;4.330;2022-11-04T15:08:52;9.40;;;1.63;;
35522;SDS011;61478;50.820;4.330;2022-11-04T15:15:28;5.38;;;2.25;;
35522;SDS011;61478;50.820;4.330;2022-11-04T15:18:06;4.47;;;1.67;;
35522;SDS011;61478;50.820;4.330;2022-11-04T15:23:25;3.50;;;1.20;;
35522;SDS011;61478;50.820;4.330;2022-11-04T15:26:01;5.78;;;1.88;;
35522;SDS011;61478;50.820;4.330;2022-11-04T15:28:35;2.85;;;1.10;;
35522;SDS011;61478;50.820;4.330;2022-11-04T15:31:17;2.50;;;1.13;;
35522;SDS011;61478;50.820;4.330;2022-11-04T15:33:54;7.10;;;1.15;;
35522;SDS011;61478;50.820;4.330;2022-11-04T15:36:35;3.10;;;1.27;;
35522;SDS011;61478;50.820;4.330;2022-11-04T15:39:06;6.82;;;1.90;;
35522;SDS011;61478;50.820;4.330;2022-11-04T15:41:43;4.88;;;2.58;;
35522;SDS011;61478;50.820;4.330;2022-11-04T15:44:29;4.07;;;1.80;;
35522;SDS011;61478;50.820;4.330;2022-11-04T15:47:01;4.47;;;1.80;;
35522;SDS011;61478;50.820;4.330;2022-11-04T15:49:55;3.00;;;1.60;;
35522;SDS011;61478;50.820;4.330;2022-11-04T15:52:33;3.65;;;1.60;;
35522;SDS011;61478;50.820;4.330;2022-11-04T15:55:17;4.40;;;1.55;;
35522;SDS011;61478;50.820;4.330;2022-11-04T15:58:02;6.07;;;1.50;;
35522;SDS011;61478;50.820;4.330;2022-11-04T16:00:39;9.88;;;1.98;;
35522;SDS011;61478;50.820;4.330;2022-11-04T16:03:05;11.00;;;3.08;;
35522;SDS011;61478;50.820;4.330;2022-11-04T16:05:42;9.82;;;1.63;;
35522;SDS011;61478;50.820;4.330;2022-11-04T16:08:26;8.77;;;1.73;;
35522;SDS011;61478;50.820;4.330;2022-11-04T16:11:13;5.05;;;1.75;;
35522;SDS011;61478;50.820;4.330;2022-11-04T16:13:44;5.93;;;1.92;;
35522;SDS011;61478;50.820;4.330;2022-11-04T16:16:25;8.32;;;1.95;;
35522;SDS011;61478;50.820;4.330;2022-11-04T16:19:01;7.13;;;2.45;;
35522;SDS011;61478;50.820;4.330;2022-11-04T16:21:33;5.00;;;1.83;;
35522;SDS011;61478;50.820;4.330;2022-11-04T16:24:07;6.57;;;2.17;;
35522;SDS011;61478;50.820;4.330;2022-11-04T16:27:00;6.85;;;1.80;;
35522;SDS011;61478;50.820;4.330;2022-11-04T16:29:32;4.30;;;1.85;;
35522;SDS011;61478;50.820;4.330;2022-11-04T16:32:15;4.28;;;2.20;;
35522;SDS011;61478;50.820;4.330;2022-11-04T16:34:47;4.78;;;2.33;;
35522;SDS011;61478;50.820;4.330;2022-11-04T16:37:21;8.00;;;2.55;;
35522;SDS011;61478;50.820;4.330;2022-11-04T16:39:50;6.70;;;2.10;;
35522;SDS011;61478;50.820;4.330;2022-11-04T16:42:22;11.82;;;4.25;;
35522;SDS011;61478;50.820;4.330;2022-11-04T16:44:53;8.93;;;2.08;;
35522;SDS011;61478;50.820;4.330;2022-11-04T16:47:27;8.05;;;2.53;;
35522;SDS011;61478;50.820;4.330;2022-11-04T16:50:00;9.82;;;2.60;;
35522;SDS011;61478;50.820;4.330;2022-11-04T16:52:32;7.20;;;2.28;;
35522;SDS011;61478;50.820;4.330;2022-11-04T16:55:01;10.30;;;3.05;;
35522;SDS011;61478;50.820;4.330;2022-11-04T16:57:33;4.80;;;2.35;;
35522;SDS011;61478;50.820;4.330;2022-11-04T17:00:03;10.57;;;3.00;;
35522;SDS011;61478;50.820;4.330;2022-11-04T17:02:34;9.48;;;3.28;;
35522;SDS011;61478;50.820;4.330;2022-11-04T17:05:05;8.07;;;3.08;;
35522;SDS011;61478;50.820;4.330;2022-11-04T17:07:40;8.43;;;3.20;;
35522;SDS011;61478;50.820;4.330;2022-11-04T17:10:18;10.20;;;3.55;;
35522;SDS011;61478;50.820;4.330;2022-11-04T17:12:52;8.10;;;3.00;;
35522;SDS011;61478;50.820;4.330;2022-11-04T17:15:30;10.90;;;2.38;;
35522;SDS011;61478;50.820;4.330;2022-11-04T17:18:06;6.38;;;2.88;;
35522;SDS011;61478;50.820;4.330;2022-11-04T17:20:47;14.20;;;7.60;;
35522;SDS011;61478;50.820;4.330;2022-11-04T17:23:22;14.23;;;4.35;;
35522;SDS011;61478;50.820;4.330;2022-11-04T17:25:54;8.40;;;2.75;;
35522;SDS011;61478;50.820;4.330;2022-11-04T17:28:26;9.93;;;3.05;;
35522;SDS011;61478;50.820;4.330;2022-11-04T17:30:55;7.95;;;3.03;;
35522;SDS011;61478;50.820;4.330;2022-11-04T17:33:28;10.55;;;3.55;;
35522;SDS011;61478;50.820;4.330;2022-11-04T17:36:01;9.98;;;3.47;;
35522;SDS011;61478;50.820;4.330;2022-11-04T17:38:35;8.52;;;2.72;;
35522;SDS011;61478;50.820;4.330;2022-11-04T17:41:04;14.23;;;3.03;;
35522;SDS011;61478;50.820;4.330;2022-11-04T17:43:54;8.73;;;3.13;;
35522;SDS011;61478;50.820;4.330;2022-11-04T17:46:30;8.18;;;3.25;;
35522;SDS011;61478;50.820;4.330;2022-11-04T17:49:09;11.07;;;3.63;;
35522;SDS011;61478;50.820;4.330;2022-11-04T17:51:38;17.33;;;5.13;;
35522;SDS011;61478;50.820;4.330;2022-11-04T17:54:08;14.43;;;3.78;;
35522;SDS011;61478;50.820;4.330;2022-11-04T17:56:38;9.65;;;3.92;;
35522;SDS011;61478;50.820;4.330;2022-11-04T17:59:05;7.05;;;3.50;;
35522;SDS011;61478;50.820;4.330;2022-11-04T18:01:32;17.75;;;3.95;;
35522;SDS011;61478;50.820;4.330;2022-11-04T18:04:04;16.00;;;5.13;;
35522;SDS011;61478;50.820;4.330;2022-11-04T18:06:34;14.50;;;5.10;;
35522;SDS011;61478;50.820;4.330;2022-11-04T18:09:03;14.05;;;4.70;;
35522;SDS011;61478;50.820;4.330;2022-11-04T18:11:39;14.38;;;5.95;;
35522;SDS011;61478;50.820;4.330;2022-11-04T18:14:24;18.63;;;5.70;;
35522;SDS011;61478;50.820;4.330;2022-11-04T18:16:50;20.00;;;5.32;;